Time;durP1;ratioP1;P1;durP2;ratioP2;P2;SDS_P1;SDS_P2;PMS_P1;PMS_P2;Temp;Humidity;BMP_temperature;BMP_pressure;BME280_temperature;BME280_humidity;BME280_pressure;Samples;Min_cycle;Max_cycle;Signal;HPM_P1;HPM_P2
2023/12/01 00:01:59;;;;;;;18.38;10.70;;;;;;;2.07;100.00;97202.19;5065248;28;20044;-77
2023/12/01 00:04:24;;;;;;;21.83;11.18;;;;;;;1.93;100.00;97185.19;5050977;28;20037;-76
2023/12/01 00:06:50;;;;;;;18.60;10.48;;;;;;;2.06;100.00;97194.34;5066057;28;20029;-76
2023/12/01 00:22:42;;;;;;;19.55;10.07;;;;;;;1.98;100.00;97206.78;5062954;28;20218;-76
2023/12/01 00:25:08;;;;;;;17.25;9.60;;;;;;;2.12;100.00;97201.59;5066908;28;20020;-78
2023/12/01 00:27:33;;;;;;;17.83;9.32;;;;;;;2.16;100.00;97202.88;5078064;28;20036;-77
2023/12/01 00:29:58;;;;;;;15.85;8.70;;;;;;;2.18;100.00;97198.19;5070565;28;20013;-77
2023/12/01 00:32:24;;;;;;;17.65;9.57;;;;;;;2.23;100.00;97217.13;5046590;28;20425;-77
2023/12/01 00:34:49;;;;;;;18.15;9.73;;;;;;;2.26;100.00;97214.06;5047662;28;20191;-76
2023/12/01 00:37:16;;;;;;;18.52;9.05;;;;;;;2.28;100.00;97190.69;5050392;28;20046;-76
2023/12/01 00:39:41;;;;;;;17.75;9.80;;;;;;;2.27;100.00;97197.03;5044969;28;20017;-76
2023/12/01 00:42:07;;;;;;;17.15;8.57;;;;;;;2.28;100.00;97205.84;5064661;28;20033;-76
2023/12/01 00:44:32;;;;;;;15.38;8.57;;;;;;;2.29;100.00;97212.84;5046753;28;20321;-76
2023/12/01 00:46:57;;;;;;;17.65;9.30;;;;;;;2.19;100.00;97189.97;5064637;28;20027;-77
2023/12/01 00:49:22;;;;;;;18.45;9.63;;;;;;;2.26;100.00;97192.72;5038884;28;20005;-76
2023/12/01 00:51:48;;;;;;;18.05;9.35;;;;;;;2.22;100.00;97185.28;5068000;28;20024;-76
2023/12/01 00:54:13;;;;;;;18.33;9.40;;;;;;;2.23;100.00;97209.13;5064623;28;20028;-76
2023/12/01 00:59:04;;;;;;;18.10;9.32;;;;;;;2.30;100.00;97196.63;5092296;22;20049;-51
2023/12/01 01:01:30;;;;;;;20.17;8.98;;;;;;;2.30;100.00;97203.81;5054739;28;20052;-50
2023/12/01 01:03:57;;;;;;;17.55;9.18;;;;;;;2.34;100.00;97197.09;5056007;28;20024;-50
2023/12/01 01:06:22;;;;;;;19.92;9.43;;;;;;;2.32;100.00;97194.63;5058962;28;20036;-51
2023/12/01 01:08:48;;;;;;;15.68;9.15;;;;;;;2.32;100.00;97204.47;5056276;28;20024;-51
2023/12/01 01:11:13;;;;;;;19.20;8.90;;;;;;;2.35;100.00;97204.91;5055180;28;20089;-51
2023/12/01 01:13:38;;;;;;;16.33;8.80;;;;;;;2.38;100.00;97214.38;5056123;28;20029;-50
2023/12/01 01:16:04;;;;;;;14.68;8.35;;;;;;;2.47;100.00;97212.41;5055992;28;20146;-51
2023/12/01 01:18:30;;;;;;;17.67;9.48;;;;;;;2.33;100.00;97206.09;5072646;28;20047;-50
2023/12/01 01:20:55;;;;;;;15.55;8.65;;;;;;;2.35;100.00;97209.41;5069022;28;20024;-51
2023/12/01 01:23:20;;;;;;;14.02;7.57;;;;;;;2.33;100.00;97217.63;5072576;28;20032;-51
2023/12/01 01:25:46;;;;;;;16.75;9.05;;;;;;;2.31;100.00;97226.84;5065691;28;20082;-51
2023/12/01 01:28:11;;;;;;;15.05;8.70;;;;;;;2.24;100.00;97218.75;5071301;28;20043;-51
2023/12/01 01:30:37;;;;;;;16.85;9.07;;;;;;;2.24;100.00;97223.28;5071411;28;20012;-51
2023/12/01 01:33:02;;;;;;;15.90;8.57;;;;;;;2.32;100.00;97234.63;5072689;28;20077;-51
2023/12/01 01:35:30;;;;;;;16.60;8.57;;;;;;;2.27;100.00;97234.38;5072849;28;20027;-51
2023/12/01 01:37:55;;;;;;;18.73;9.02;;;;;;;2.24;100.00;97225.94;5070344;28;20111;-50
2023/12/01 01:40:21;;;;;;;15.98;8.77;;;;;;;2.38;100.00;97225.03;5072073;28;20111;-50
2023/12/01 01:42:46;;;;;;;19.08;9.70;;;;;;;2.24;100.00;97231.28;5071368;28;20065;-50
2023/12/01 01:45:12;;;;;;;20.23;9.35;;;;;;;2.15;100.00;97243.91;5071467;28;20024;-51
2023/12/01 01:47:37;;;;;;;19.50;9.60;;;;;;;2.09;100.00;97234.81;5061538;28;20032;-49
2023/12/01 01:50:03;;;;;;;17.70;9.25;;;;;;;2.02;100.00;97246.41;5072298;28;20026;-50
2023/12/01 01:52:29;;;;;;;18.95;10.20;;;;;;;2.08;100.00;97256.34;5071437;28;20486;-50
2023/12/01 01:54:55;;;;;;;17.77;10.70;;;;;;;2.22;100.00;97236.78;5066096;28;20028;-49
2023/12/01 01:57:20;;;;;;;17.05;9.20;;;;;;;2.40;100.00;97236.38;5071715;28;20021;-50
2023/12/01 01:59:45;;;;;;;16.90;10.05;;;;;;;2.42;100.00;97235.16;5082289;28;20078;-50
2023/12/01 02:02:11;;;;;;;19.20;10.57;;;;;;;2.35;100.00;97236.94;5071179;28;20086;-50
2023/12/01 02:04:36;;;;;;;19.60;10.00;;;;;;;2.33;100.00;97238.97;5071933;28;20051;-50
2023/12/01 02:07:02;;;;;;;18.23;10.13;;;;;;;2.30;100.00;97239.34;5071092;28;20024;-50
2023/12/01 02:09:32;;;;;;;19.98;9.57;;;;;;;2.21;100.00;97232.47;5070532;28;20021;-50
2023/12/01 02:11:57;;;;;;;20.63;9.70;;;;;;;2.15;100.00;97241.25;5064314;28;20028;-50
2023/12/01 02:14:23;;;;;;;15.38;9.70;;;;;;;2.12;100.00;97244.28;5078564;28;20360;-49
2023/12/01 02:16:49;;;;;;;17.88;10.35;;;;;;;2.09;100.00;97248.13;5071315;28;20033;-50
2023/12/01 02:19:15;;;;;;;17.48;9.77;;;;;;;2.07;100.00;97252.00;5082540;28;20086;-50
2023/12/01 02:21:47;;;;;;;19.00;10.45;;;;;;;2.06;100.00;97258.38;5070894;28;20028;-50
2023/12/01 02:24:13;;;;;;;17.80;9.48;;;;;;;2.07;100.00;97255.53;5070685;28;20050;-50
2023/12/01 02:26:38;;;;;;;18.45;10.20;;;;;;;2.12;100.00;97252.28;5071445;28;20462;-50
2023/12/01 02:29:05;;;;;;;19.88;11.40;;;;;;;2.10;100.00;97243.66;5063815;28;20035;-50
2023/12/01 02:31:32;;;;;;;18.35;11.68;;;;;;;2.08;100.00;97235.00;5086397;28;20119;-50
2023/12/01 02:33:58;;;;;;;21.35;11.32;;;;;;;2.07;100.00;97233.34;5065866;28;20024;-51
2023/12/01 02:36:23;;;;;;;22.48;11.40;;;;;;;2.16;100.00;97246.38;5065981;28;20174;-51
2023/12/01 02:38:49;;;;;;;21.73;10.93;;;;;;;2.33;100.00;97260.34;5070568;28;20031;-51
2023/12/01 02:41:16;;;;;;;19.25;10.95;;;;;;;2.30;100.00;97249.19;5071025;28;20097;-51
2023/12/01 02:43:42;;;;;;;18.52;10.13;;;;;;;2.33;100.00;97265.66;5071579;28;20159;-51
2023/12/01 02:46:11;;;;;;;19.63;9.65;;;;;;;2.22;100.00;97271.47;5066517;28;20050;-51
2023/12/01 02:48:36;;;;;;;17.27;9.88;;;;;;;2.13;100.00;97270.78;5070056;28;20024;-51
2023/12/01 02:51:01;;;;;;;17.08;9.57;;;;;;;2.15;100.00;97255.41;5071126;28;20580;-51
2023/12/01 02:53:27;;;;;;;19.73;9.77;;;;;;;2.21;100.00;97271.69;5072175;28;20024;-51
2023/12/01 02:55:52;;;;;;;18.00;9.57;;;;;;;2.23;100.00;97281.16;5064230;28;20391;-51
2023/12/01 02:58:17;;;;;;;18.67;9.77;;;;;;;2.19;100.00;97275.34;5088000;28;20023;-51
2023/12/01 03:00:43;;;;;;;14.57;8.20;;;;;;;2.24;100.00;97280.13;5070168;28;20082;-51
2023/12/01 03:03:08;;;;;;;17.10;9.77;;;;;;;2.19;100.00;97287.88;5066477;28;20024;-51
2023/12/01 03:05:34;;;;;;;19.58;9.68;;;;;;;2.14;100.00;97283.09;5069849;28;20365;-51
2023/12/01 03:07:59;;;;;;;18.23;9.50;;;;;;;2.15;100.00;97283.94;5065274;28;20032;-51
2023/12/01 03:10:24;;;;;;;17.50;9.60;;;;;;;2.03;100.00;97275.56;5070065;28;20037;-51
2023/12/01 03:12:50;;;;;;;17.73;9.85;;;;;;;1.99;100.00;97263.59;5053702;28;20475;-52
2023/12/01 03:15:20;;;;;;;17.25;9.85;;;;;;;1.96;100.00;97264.00;5068975;28;20479;-52
2023/12/01 03:17:46;;;;;;;16.33;9.05;;;;;;;1.93;100.00;97261.69;5070361;28;20069;-52
2023/12/01 03:20:16;;;;;;;16.02;9.48;;;;;;;1.84;100.00;97260.16;5067998;28;20070;-51
2023/12/01 03:22:46;;;;;;;17.95;9.25;;;;;;;1.85;100.00;97272.47;5070749;28;20028;-51
2023/12/01 03:25:12;;;;;;;19.75;9.35;;;;;;;1.80;100.00;97275.69;5062222;28;20067;-51
2023/12/01 03:27:40;;;;;;;14.65;8.63;;;;;;;1.85;100.00;97299.97;5068649;28;20024;-51
2023/12/01 03:30:13;;;;;;;18.73;9.57;;;;;;;1.80;100.00;97297.03;5069490;28;20052;-51
2023/12/01 03:32:47;;;;;;;17.38;9.75;;;;;;;1.72;100.00;97294.47;5067365;28;20040;-51
2023/12/01 03:35:14;;;;;;;19.00;10.05;;;;;;;1.67;100.00;97294.19;5069209;28;20071;-50
2023/12/01 03:37:40;;;;;;;19.30;10.32;;;;;;;1.67;100.00;97280.84;5068232;28;20055;-50
2023/12/01 03:40:08;;;;;;;16.02;9.85;;;;;;;1.64;100.00;97286.56;5068650;28;20468;-51
2023/12/01 03:42:37;;;;;;;18.90;10.63;;;;;;;1.68;100.00;97299.34;5064486;28;20094;-51
2023/12/01 03:45:02;;;;;;;20.95;9.95;;;;;;;1.67;100.00;97291.50;5070411;28;20055;-50
2023/12/01 03:47:28;;;;;;;18.42;9.77;;;;;;;1.63;100.00;97291.06;5070000;28;20068;-50
2023/12/01 03:49:53;;;;;;;19.38;10.07;;;;;;;1.56;100.00;97278.66;5069999;28;20086;-50
2023/12/01 03:52:18;;;;;;;16.55;9.73;;;;;;;1.54;100.00;97270.84;5070282;28;20082;-51
2023/12/01 03:54:44;;;;;;;21.20;11.25;;;;;;;1.46;100.00;97261.09;5053999;28;20024;-50
2023/12/01 03:57:09;;;;;;;19.13;10.38;;;;;;;1.52;100.00;97262.22;5069780;28;20028;-51
2023/12/01 03:59:34;;;;;;;18.50;10.75;;;;;;;1.44;100.00;97271.13;5070494;28;20022;-51
2023/12/01 04:02:00;;;;;;;19.05;10.05;;;;;;;1.44;100.00;97275.59;5062483;28;20063;-51
2023/12/01 04:04:25;;;;;;;19.73;10.55;;;;;;;1.40;100.00;97277.00;5073973;28;20029;-51
2023/12/01 04:06:52;;;;;;;20.13;10.80;;;;;;;1.29;100.00;97270.28;5070409;28;20049;-51
2023/12/01 04:09:17;;;;;;;18.80;10.40;;;;;;;1.25;100.00;97277.78;5066605;28;20078;-51
2023/12/01 04:11:45;;;;;;;17.83;9.65;;;;;;;1.18;100.00;97270.72;5066972;28;20024;-51
2023/12/01 04:14:10;;;;;;;19.52;10.20;;;;;;;1.16;100.00;97273.56;5070234;28;20419;-51
2023/12/01 04:16:35;;;;;;;19.02;10.68;;;;;;;1.14;100.00;97267.59;5071421;28;20028;-50
2023/12/01 04:19:01;;;;;;;19.90;11.68;;;;;;;1.17;100.00;97263.75;5064595;28;20028;-52
2023/12/01 04:21:27;;;;;;;21.20;11.02;;;;;;;1.16;100.00;97283.41;5083110;28;20028;-52
2023/12/01 04:23:53;;;;;;;18.80;10.48;;;;;;;1.39;100.00;97280.66;5072817;28;20036;-51
2023/12/01 04:26:18;;;;;;;22.95;11.02;;;;;;;1.29;100.00;97283.59;5065643;28;20020;-51
2023/12/01 04:28:44;;;;;;;20.00;10.27;;;;;;;1.24;100.00;97259.34;5056951;28;20124;-51
2023/12/01 04:31:09;;;;;;;17.88;10.32;;;;;;;1.35;100.00;97271.38;5055812;28;20063;-51
2023/12/01 04:33:35;;;;;;;18.40;10.40;;;;;;;1.54;100.00;97281.50;5046259;28;20502;-51
2023/12/01 04:36:06;;;;;;;19.77;9.98;;;;;;;1.39;100.00;97280.66;5052143;28;20032;-51
2023/12/01 04:38:32;;;;;;;19.00;10.52;;;;;;;1.35;100.00;97284.72;5064567;28;20021;-51
2023/12/01 04:40:57;;;;;;;18.65;10.27;;;;;;;1.29;100.00;97286.28;5048453;28;20115;-51
2023/12/01 04:43:23;;;;;;;19.55;10.48;;;;;;;1.32;100.00;97280.56;5058164;28;20028;-51
2023/12/01 04:45:48;;;;;;;21.05;10.95;;;;;;;1.19;100.00;97275.03;5057383;28;20044;-51
2023/12/01 04:48:13;;;;;;;21.58;10.63;;;;;;;1.20;100.00;97282.03;5052054;28;20044;-51
2023/12/01 04:50:46;;;;;;;18.63;10.93;;;;;;;1.19;100.00;97286.53;5051690;28;20028;-51
2023/12/01 04:53:12;;;;;;;19.02;10.68;;;;;;;1.23;100.00;97289.63;5056002;28;20059;-51
2023/12/01 04:55:37;;;;;;;19.77;10.70;;;;;;;1.22;100.00;97288.81;5073655;28;20540;-50
2023/12/01 04:58:03;;;;;;;19.60;10.32;;;;;;;1.17;100.00;97283.22;5060422;28;20024;-50
2023/12/01 05:00:28;;;;;;;18.70;10.38;;;;;;;1.39;100.00;97273.50;5069120;28;20028;-50
2023/12/01 05:03:04;;;;;;;18.85;10.40;;;;;;;1.26;100.00;97283.97;5078435;28;20475;-51
2023/12/01 05:05:34;;;;;;;19.00;10.45;;;;;;;1.27;100.00;97280.28;5075349;28;20487;-51
2023/12/01 05:08:04;;;;;;;19.38;10.15;;;;;;;1.10;100.00;97263.63;5054649;28;20074;-51
2023/12/01 05:10:32;;;;;;;20.92;11.15;;;;;;;1.04;100.00;97254.53;5047098;28;20050;-51
2023/12/01 05:13:00;;;;;;;18.98;10.93;;;;;;;1.15;100.00;97266.56;5062958;28;20023;-51
2023/12/01 05:15:27;;;;;;;20.20;10.52;;;;;;;1.13;100.00;97275.75;5061214;28;20029;-51
2023/12/01 05:18:06;;;;;;;18.58;10.73;;;;;;;1.15;100.00;97287.06;5046821;28;20553;-51
2023/12/01 05:20:33;;;;;;;19.17;10.25;;;;;;;1.16;100.00;97286.06;5055712;28;20032;-51
2023/12/01 05:23:08;;;;;;;18.63;10.43;;;;;;;1.09;100.00;97281.44;5071688;28;20046;-52
2023/12/01 05:25:33;;;;;;;17.92;10.35;;;;;;;1.09;100.00;97280.63;5046260;28;20020;-51
2023/12/01 05:28:01;;;;;;;16.02;9.73;;;;;;;1.09;100.00;97289.44;5065398;28;20035;-51
2023/12/01 05:30:29;;;;;;;19.67;10.85;;;;;;;1.03;100.00;97276.84;5078662;28;20475;-51
2023/12/01 05:32:56;;;;;;;18.58;10.35;;;;;;;1.03;100.00;97278.69;5048063;28;20060;-51
2023/12/01 05:35:22;;;;;;;19.83;11.48;;;;;;;1.02;100.00;97285.88;5054344;28;20028;-50
2023/12/01 05:37:56;;;;;;;19.00;10.43;;;;;;;1.15;100.00;97297.72;5053356;28;20048;-51
2023/12/01 05:40:29;;;;;;;19.35;10.68;;;;;;;1.15;100.00;97311.03;5051149;28;20091;-51
2023/12/01 05:42:57;;;;;;;21.02;11.95;;;;;;;1.16;100.00;97313.53;5056957;28;20040;-51
2023/12/01 05:45:25;;;;;;;19.98;10.70;;;;;;;1.18;100.00;97310.66;5057620;28;20021;-52
2023/12/01 05:47:52;;;;;;;18.50;10.70;;;;;;;1.19;100.00;97299.03;5047979;28;20028;-51
2023/12/01 05:50:22;;;;;;;18.83;10.20;;;;;;;1.09;100.00;97309.91;5052509;28;20035;-51
2023/12/01 05:52:48;;;;;;;22.80;11.93;;;;;;;0.97;100.00;97298.88;5059365;28;20025;-51
2023/12/01 05:55:16;;;;;;;19.17;11.02;;;;;;;0.93;100.00;97299.41;5055820;28;20052;-51
2023/12/01 05:57:42;;;;;;;21.48;11.55;;;;;;;0.99;100.00;97312.00;5046038;28;20035;-51
2023/12/01 06:00:12;;;;;;;20.02;10.27;;;;;;;1.08;100.00;97314.44;5054017;28;20054;-50
2023/12/01 06:02:43;;;;;;;19.92;10.48;;;;;;;1.15;100.00;97330.50;5055155;28;20093;-50
2023/12/01 06:05:09;;;;;;;22.75;11.63;;;;;;;1.11;100.00;97323.91;5069426;28;20046;-51
2023/12/01 06:07:36;;;;;;;19.50;11.80;;;;;;;1.18;100.00;97324.84;5066876;28;20028;-51
2023/12/01 06:10:02;;;;;;;20.02;11.05;;;;;;;1.14;100.00;97344.00;5054898;28;20040;-51
2023/12/01 06:12:29;;;;;;;19.80;11.40;;;;;;;1.17;100.00;97330.34;5053259;28;20036;-51
2023/12/01 06:14:54;;;;;;;19.60;10.55;;;;;;;1.13;100.00;97337.88;5052821;28;20189;-51
2023/12/01 06:17:20;;;;;;;22.40;11.63;;;;;;;1.05;100.00;97324.63;5044034;28;20111;-51
2023/12/01 06:19:45;;;;;;;19.60;10.70;;;;;;;1.05;100.00;97327.28;5048110;28;20044;-51
2023/12/01 06:22:11;;;;;;;22.42;10.82;;;;;;;1.06;100.00;97337.75;5034149;28;20032;-52
2023/12/01 06:24:36;;;;;;;19.00;10.98;;;;;;;1.00;100.00;97349.13;5058295;28;20024;-51
2023/12/01 06:27:04;;;;;;;22.80;11.63;;;;;;;0.94;100.00;97343.66;5064317;28;20460;-50
2023/12/01 06:29:30;;;;;;;23.23;11.90;;;;;;;0.89;100.00;97346.84;5052095;28;20055;-51
2023/12/01 06:31:56;;;;;;;19.25;11.10;;;;;;;1.00;100.00;97354.44;5054304;28;20056;-51
2023/12/01 06:34:21;;;;;;;22.85;12.27;;;;;;;1.12;100.00;97356.69;5055444;28;20123;-52
2023/12/01 06:36:46;;;;;;;24.15;12.43;;;;;;;1.07;100.00;97352.72;5054373;28;20035;-51
2023/12/01 06:39:12;;;;;;;22.48;12.05;;;;;;;0.88;100.00;97347.88;5058545;28;20165;-52
2023/12/01 06:41:38;;;;;;;22.05;11.50;;;;;;;0.89;100.00;97344.19;5059522;28;20028;-50
2023/12/01 06:44:05;;;;;;;20.23;10.75;;;;;;;0.91;100.00;97349.34;5051759;28;20032;-50
2023/12/01 06:46:31;;;;;;;20.02;11.05;;;;;;;1.01;100.00;97364.06;5054326;28;20044;-51
2023/12/01 06:48:56;;;;;;;22.83;12.50;;;;;;;1.04;100.00;97373.53;5055628;28;20035;-51
2023/12/01 06:51:23;;;;;;;21.50;12.10;;;;;;;1.15;100.00;97372.28;5074657;28;20012;-51
2023/12/01 06:53:48;;;;;;;20.50;11.77;;;;;;;1.14;100.00;97371.47;5056725;28;20063;-50
2023/12/01 06:56:18;;;;;;;22.38;11.50;;;;;;;1.15;100.00;97378.44;5056831;28;20051;-51
2023/12/01 06:58:44;;;;;;;17.13;10.80;;;;;;;1.04;100.00;97379.69;5071334;22;20530;-79
2023/12/01 07:01:18;;;;;;;21.60;11.48;;;;;;;1.09;100.00;97397.81;5067571;28;20016;-78
2023/12/01 07:03:46;;;;;;;18.13;10.43;;;;;;;1.03;100.00;97404.69;5071896;28;20021;-79
2023/12/01 07:06:12;;;;;;;20.10;11.30;;;;;;;1.03;100.00;97412.66;5067064;28;20032;-77
2023/12/01 07:08:38;;;;;;;19.80;11.35;;;;;;;0.79;100.00;97380.91;5076354;28;20016;-79
2023/12/01 07:11:04;;;;;;;21.38;11.48;;;;;;;1.03;100.00;97406.53;5055996;28;20024;-80
2023/12/01 07:13:29;;;;;;;19.55;11.35;;;;;;;0.83;100.00;97382.19;5064844;28;20027;-78
2023/12/01 07:15:55;;;;;;;19.70;11.57;;;;;;;0.84;100.00;97392.66;5074891;28;20020;-78
2023/12/01 07:18:21;;;;;;;23.15;11.48;;;;;;;0.79;100.00;97383.56;5076973;28;20024;-79
2023/12/01 07:20:52;;;;;;;19.10;11.63;;;;;;;0.76;100.00;97375.91;5049611;28;20025;-80
2023/12/01 07:23:18;;;;;;;24.13;12.63;;;;;;;0.78;100.00;97379.22;5062940;28;20104;-77
2023/12/01 07:25:47;;;;;;;23.67;13.05;;;;;;;0.74;100.00;97376.09;5073619;28;20036;-78
2023/12/01 07:28:12;;;;;;;22.75;12.18;;;;;;;0.83;100.00;97379.53;5053182;28;20023;-78
2023/12/01 07:30:40;;;;;;;48.47;25.13;;;;;;;0.86;100.00;97373.84;5063026;28;20325;-78
2023/12/01 07:33:06;;;;;;;28.65;15.88;;;;;;;0.88;100.00;97369.19;5059884;28;20222;-76
2023/12/01 07:35:31;;;;;;;27.45;15.60;;;;;;;0.99;100.00;97387.38;5051946;28;20028;-79
2023/12/01 07:37:56;;;;;;;22.67;12.77;;;;;;;1.08;100.00;97375.69;5083244;28;20217;-81
2023/12/01 07:40:23;;;;;;;18.80;11.65;;;;;;;1.03;100.00;97383.38;5060615;28;20209;-81
2023/12/01 07:42:50;;;;;;;21.55;11.88;;;;;;;1.06;100.00;97377.69;5070837;28;20043;-75
2023/12/01 07:45:19;;;;;;;23.20;12.23;;;;;;;1.04;100.00;97370.88;5087226;28;20050;-77
2023/12/01 07:47:59;;;;;;;;;;;;;;;1.04;100.00;97373.53;5067575;28;20029;-81
2023/12/01 07:50:25;;;;;;;21.20;11.35;;;;;;;1.06;100.00;97380.34;5073576;28;19979;-80
2023/12/01 07:52:51;;;;;;;19.20;10.85;;;;;;;1.00;100.00;97362.44;5065783;28;20075;-78
2023/12/01 07:55:19;;;;;;;22.60;11.75;;;;;;;1.18;100.00;97388.78;5098356;28;20020;-78
2023/12/01 07:57:45;;;;;;;18.88;11.35;;;;;;;1.08;100.00;97381.00;5062813;28;20325;-76
2023/12/01 08:00:17;;;;;;;20.85;11.10;;;;;;;1.22;100.00;97398.03;5062139;28;20040;-77
2023/12/01 08:02:44;;;;;;;18.35;11.18;;;;;;;1.19;100.00;97392.25;5059233;28;20024;-77
2023/12/01 08:05:13;;;;;;;18.77;10.93;;;;;;;1.28;100.00;97399.16;5066848;28;20031;-77
2023/12/01 08:07:40;;;;;;;21.23;11.45;;;;;;;1.30;100.00;97386.50;5059416;28;20101;-77
2023/12/01 08:10:06;;;;;;;21.77;11.60;;;;;;;1.29;100.00;97388.34;5081998;28;20021;-76
2023/12/01 08:12:31;;;;;;;19.55;11.23;;;;;;;1.36;100.00;97390.28;5067581;28;20775;-77
2023/12/01 08:14:58;;;;;;;18.40;10.88;;;;;;;1.52;100.00;97396.31;5104093;28;20024;-77
2023/12/01 08:17:24;;;;;;;17.90;10.63;;;;;;;1.39;100.00;97368.59;5084335;28;20016;-77
2023/12/01 08:19:49;;;;;;;19.58;11.27;;;;;;;1.48;100.00;97379.00;5086091;28;20024;-81
2023/12/01 08:22:14;;;;;;;17.27;9.90;;;;;;;1.44;100.00;97360.88;5080752;28;20020;-76
2023/12/01 08:24:39;;;;;;;18.13;10.05;;;;;;;1.70;100.00;97392.44;5099821;28;20028;-77
2023/12/01 08:27:05;;;;;;;17.80;10.77;;;;;;;1.81;100.00;97400.03;5063833;28;20121;-78
2023/12/01 08:29:30;;;;;;;19.45;10.82;;;;;;;1.85;100.00;97393.28;5066949;28;20099;-77
2023/12/01 08:31:55;;;;;;;17.45;10.88;;;;;;;1.65;100.00;97376.16;5069838;28;20028;-77
2023/12/01 08:34:21;;;;;;;17.98;10.90;;;;;;;1.75;100.00;97406.06;5096695;28;20289;-76
2023/12/01 08:36:46;;;;;;;18.42;10.95;;;;;;;1.62;100.00;97385.34;5077702;28;20083;-82
2023/12/01 08:39:12;;;;;;;17.70;10.63;;;;;;;1.89;100.00;97391.94;5071573;28;20023;-78
2023/12/01 08:41:37;;;;;;;16.90;10.75;;;;;;;1.87;100.00;97391.28;5073255;28;20056;-77
2023/12/01 08:44:03;;;;;;;16.50;10.07;;;;;;;1.95;100.00;97385.03;5054276;28;20021;-79
2023/12/01 08:46:28;;;;;;;18.58;10.55;;;;;;;2.13;100.00;97414.84;5069994;28;20107;-77
2023/12/01 08:48:54;;;;;;;16.20;10.40;;;;;;;2.18;100.00;97407.09;5065074;28;20025;-78
2023/12/01 08:51:19;;;;;;;15.90;9.85;;;;;;;2.14;100.00;97394.31;5061499;28;20024;-80
2023/12/01 08:53:44;;;;;;;14.52;9.35;;;;;;;2.05;100.00;97395.44;5073863;28;20020;-79
2023/12/01 08:56:10;;;;;;;16.00;9.65;;;;;;;1.77;100.00;97344.56;5067276;28;20024;-80
2023/12/01 08:58:35;;;;;;;15.82;10.52;;;;;;;1.98;100.00;97382.81;5079032;28;20020;-79
2023/12/01 09:01:02;;;;;;;17.75;10.18;;;;;;;1.97;100.00;97410.50;5076474;28;20047;-79
2023/12/01 09:03:28;;;;;;;18.05;10.20;;;;;;;1.92;100.00;97401.41;5081023;28;20031;-78
2023/12/01 09:05:53;;;;;;;16.30;10.10;;;;;;;2.12;100.00;97396.34;5065106;28;20024;-77
2023/12/01 09:08:18;;;;;;;18.58;10.88;;;;;;;2.13;100.00;97393.50;5068086;28;20031;-79
2023/12/01 09:10:44;;;;;;;16.23;10.82;;;;;;;2.07;100.00;97362.22;5068191;28;20016;-80
2023/12/01 09:13:09;;;;;;;21.45;12.80;;;;;;;2.18;100.00;97382.28;5069161;28;20213;-78
2023/12/01 09:15:34;;;;;;;20.92;11.65;;;;;;;2.01;100.00;97378.94;5068601;28;20020;-79
2023/12/01 09:17:59;;;;;;;22.02;13.15;;;;;;;2.30;100.00;97396.78;5071729;28;20025;-77
2023/12/01 09:20:25;;;;;;;20.33;12.52;;;;;;;2.22;100.00;97378.19;5068914;28;20040;-77
2023/12/01 09:22:50;;;;;;;21.50;13.13;;;;;;;2.31;100.00;97358.44;5066674;28;20028;-77
2023/12/01 09:25:15;;;;;;;22.45;13.27;;;;;;;2.51;100.00;97405.88;5062102;28;20330;-77
2023/12/01 09:27:41;;;;;;;20.63;12.80;;;;;;;2.73;100.00;97388.06;5073714;28;20087;-78
2023/12/01 09:30:10;;;;;;;23.15;12.55;;;;;;;2.73;100.00;97399.59;5078093;28;20043;-78
2023/12/01 09:32:35;;;;;;;21.45;12.07;;;;;;;2.54;100.00;97368.13;5052395;28;20029;-79
2023/12/01 09:35:01;;;;;;;21.65;12.95;;;;;;;2.86;100.00;97409.59;5078762;28;20024;-81
2023/12/01 09:37:26;;;;;;;22.38;13.13;;;;;;;2.80;100.00;97392.47;5050277;28;20047;-77
2023/12/01 09:39:51;;;;;;;21.88;12.88;;;;;;;2.63;100.00;97361.66;5071529;28;20024;-81
2023/12/01 09:42:19;;;;;;;19.13;12.63;;;;;;;2.71;100.00;97382.91;5083298;28;20028;-76
2023/12/01 09:44:44;;;;;;;19.95;11.68;;;;;;;2.64;100.00;97396.16;5050025;28;20218;-78
2023/12/01 09:47:12;;;;;;;22.15;12.00;;;;;;;2.54;100.00;97410.84;5080289;28;20047;-79
2023/12/01 09:49:38;;;;;;;21.92;11.70;;;;;;;2.60;100.00;97426.13;5079712;28;20091;-76
2023/12/01 09:52:04;;;;;;;21.13;12.77;;;;;;;2.68;100.00;97414.50;5083831;28;20130;-77
2023/12/01 09:54:30;;;;;;;20.30;12.05;;;;;;;2.48;100.00;97393.72;5064631;28;20080;-77
2023/12/01 09:57:04;;;;;;;21.95;12.88;;;;;;;2.54;100.00;97410.84;5082885;28;20392;-77
2023/12/01 09:59:29;;;;;;;22.25;13.43;;;;;;;2.46;100.00;97405.59;5080913;28;20047;-76
2023/12/01 10:01:55;;;;;;;26.20;13.30;;;;;;;2.27;100.00;97383.81;5067068;28;20194;-80
2023/12/01 10:04:20;;;;;;;22.45;12.95;;;;;;;2.42;100.00;97405.97;5067730;28;20099;-80
2023/12/01 10:06:47;;;;;;;27.52;13.73;;;;;;;2.49;100.00;97402.56;5066896;28;20061;-80
2023/12/01 10:09:12;;;;;;;22.65;12.95;;;;;;;2.23;100.00;97355.00;5084425;28;20024;-78
2023/12/01 10:11:38;;;;;;;23.85;12.88;;;;;;;2.48;100.00;97390.22;5061927;28;20214;-80
2023/12/01 10:14:06;;;;;;;23.50;13.68;;;;;;;2.47;100.00;97391.25;5078295;28;20016;-77
2023/12/01 10:16:34;;;;;;;24.75;13.02;;;;;;;2.60;100.00;97400.25;5077252;28;20024;-79
2023/12/01 10:19:04;;;;;;;25.02;13.02;;;;;;;2.55;100.00;97391.16;5081150;28;20028;-78
2023/12/01 10:21:55;;;;;;;;;;;;;;;2.74;100.00;97405.75;5083792;28;20058;-77
2023/12/01 10:24:22;;;;;;;22.50;12.23;;;;;;;2.85;100.00;97398.03;5053031;28;19908;-78
2023/12/01 10:26:49;;;;;;;22.75;12.52;;;;;;;2.68;100.00;97395.81;5061525;28;20403;-77
2023/12/01 10:29:35;;;;;;;26.30;12.70;;;;;;;2.68;100.00;97399.31;5065808;28;20054;-77
2023/12/01 10:32:07;;;;;;;24.35;13.73;;;;;;;2.62;100.00;97397.41;5078596;28;20063;-77
2023/12/01 10:34:32;;;;;;;22.85;13.55;;;;;;;2.53;100.00;97372.63;5075733;28;20028;-77
2023/12/01 10:36:57;;;;;;;25.25;13.25;;;;;;;2.65;100.00;97370.31;5080627;28;20016;-78
2023/12/01 10:39:27;;;;;;;24.27;13.50;;;;;;;2.62;100.00;97370.72;5063963;28;20122;-78
2023/12/01 10:41:55;;;;;;;25.60;13.45;;;;;;;2.37;100.00;97346.16;5059125;28;20071;-77
2023/12/01 10:44:26;;;;;;;22.35;13.35;;;;;;;2.45;100.00;97340.72;5077718;28;20016;-77
2023/12/01 10:46:52;;;;;;;22.33;11.85;;;;;;;2.67;100.00;97359.44;5063163;28;20032;-77
2023/12/01 10:49:19;;;;;;;25.02;14.00;;;;;;;2.74;100.00;97360.34;5053813;28;20032;-77
2023/12/01 10:51:46;;;;;;;23.88;14.27;;;;;;;2.73;100.00;97361.38;5075066;28;20028;-78
2023/12/01 10:54:12;;;;;;;23.05;13.57;;;;;;;2.49;100.00;97344.69;5049769;28;20021;-77
2023/12/01 10:56:49;;;;;;;25.35;14.23;;;;;;;2.64;100.00;97358.78;5059358;28;20028;-77
2023/12/01 10:59:19;;;;;;;23.48;12.55;;;;;;;2.64;100.00;97363.31;5063595;28;20066;-77
2023/12/01 11:01:48;;;;;;;24.85;13.32;;;;;;;2.67;100.00;97346.91;5060288;28;20213;-77
2023/12/01 11:04:18;;;;;;;25.73;13.70;;;;;;;2.50;100.00;97337.50;5068630;28;20388;-77
2023/12/01 11:06:52;;;;;;;24.98;13.48;;;;;;;2.50;100.00;97366.84;5082893;28;20227;-77
2023/12/01 11:09:47;;;;;;;25.02;13.18;;;;;;;2.57;100.00;97367.78;5066736;28;20052;-77
2023/12/01 11:12:15;;;;;;;26.17;13.90;;;;;;;2.56;100.00;97350.91;5081219;28;20031;-76
2023/12/01 11:14:43;;;;;;;24.33;13.38;;;;;;;2.46;100.00;97336.19;5068314;28;20029;-78
2023/12/01 11:17:09;;;;;;;26.20;13.87;;;;;;;2.58;100.00;97356.06;5065982;28;20031;-77
2023/12/01 11:19:37;;;;;;;25.38;12.95;;;;;;;2.60;100.00;97373.56;5080721;28;20284;-77
2023/12/01 11:22:22;;;;;;;18.20;10.18;;;;;;;2.37;100.00;97338.16;5056989;28;20029;-77
2023/12/01 11:24:49;;;;;;;24.35;12.48;;;;;;;2.51;100.00;97349.81;5082297;28;20028;-81
2023/12/01 11:27:15;;;;;;;25.23;13.13;;;;;;;2.47;100.00;97352.03;5071780;28;20166;-77
2023/12/01 11:30:07;;;;;;;31.85;15.35;;;;;;;2.40;100.00;97351.13;5085959;28;20032;-78
2023/12/01 11:32:33;;;;;;;24.27;14.48;;;;;;;2.46;100.00;97361.03;5063930;28;20024;-79
2023/12/01 11:35:07;;;;;;;24.70;15.55;;;;;;;2.46;100.00;97344.22;5089337;28;20024;-77